createdAt,value
2017-11-07T00:00:27.713Z,66.24
2017-11-07T00:01:27.755Z,65.94
2017-11-07T00:02:27.774Z,66.24
2017-11-07T00:03:28.092Z,65.94
2017-11-07T00:04:27.822Z,65.85
2017-11-07T00:05:27.869Z,65.94
2017-11-07T00:06:27.899Z,65.85
2017-11-07T00:07:27.920Z,65.85
2017-11-07T00:08:27.949Z,65.94
2017-11-07T00:09:27.982Z,65.94
2017-11-07T00:10:28.266Z,65.94
2017-11-07T00:11:28.040Z,65.75
2017-11-07T00:12:28.092Z,66.04
2017-11-07T00:13:28.101Z,66.04
2017-11-07T00:14:28.146Z,65.75
2017-11-07T00:15:28.162Z,65.94
2017-11-07T00:16:28.196Z,65.94
2017-11-07T00:17:28.476Z,65.85
2017-11-07T00:18:28.272Z,65.94
2017-11-07T00:19:28.489Z,65.94
2017-11-07T00:20:28.339Z,65.94
2017-11-07T00:21:28.367Z,66.04
2017-11-07T00:22:28.394Z,66.04
2017-11-07T00:23:28.415Z,66.04
2017-11-07T00:24:28.709Z,66.04
2017-11-07T00:25:28.492Z,66.04
2017-11-07T00:26:28.545Z,66.04
2017-11-07T00:27:28.539Z,66.04
2017-11-07T00:28:28.568Z,65.94
2017-11-07T00:29:28.714Z,66.04
2017-11-07T00:30:28.653Z,66.14
2017-11-07T00:31:28.976Z,66.04
2017-11-07T00:32:28.727Z,66.04
2017-11-07T00:33:28.741Z,66.04
2017-11-07T00:34:28.775Z,66.04
2017-11-07T00:35:28.784Z,66.04
2017-11-07T00:36:28.815Z,66.14
2017-11-07T00:37:28.848Z,65.94
2017-11-07T00:38:29.127Z,65.94
2017-11-07T00:39:28.912Z,65.94
2017-11-07T00:40:28.965Z,65.94
2017-11-07T00:41:28.988Z,65.85
2017-11-07T00:42:29.005Z,65.75
2017-11-07T00:43:29.050Z,66.04
2017-11-07T00:44:29.070Z,65.85
2017-11-07T00:45:29.618Z,65.94
2017-11-07T00:46:29.124Z,65.94
2017-11-07T00:47:29.156Z,65.94
2017-11-07T00:48:29.210Z,65.94
2017-11-07T00:49:29.217Z,65.94
2017-11-07T00:50:29.270Z,65.94
2017-11-07T00:51:29.347Z,66.14
2017-11-07T00:52:29.631Z,66.04
2017-11-07T00:53:29.362Z,66.04
2017-11-07T00:54:29.396Z,65.85
2017-11-07T00:55:29.422Z,65.75
2017-11-07T00:56:29.452Z,65.94
2017-11-07T00:57:29.467Z,65.85
2017-11-07T00:58:29.764Z,65.94
2017-11-07T00:59:29.600Z,65.85
2017-11-07T01:00:29.559Z,65.75
2017-11-07T01:01:29.591Z,65.75
2017-11-07T01:02:29.642Z,65.94
2017-11-07T01:03:29.661Z,65.94
2017-11-07T01:04:30.002Z,65.75
2017-11-07T01:05:29.723Z,66.04
2017-11-07T01:06:29.760Z,66.14
2017-11-07T01:07:29.801Z,66.04
2017-11-07T01:08:29.928Z,65.66
2017-11-07T01:09:29.848Z,65.75
2017-11-07T01:10:30.121Z,66.04
2017-11-07T01:11:29.922Z,66.14
2017-11-07T01:12:29.979Z,66.14
2017-11-07T01:13:30.049Z,66.24
2017-11-07T01:14:30.021Z,66.04
2017-11-07T01:15:30.048Z,66.14
2017-11-07T01:16:30.325Z,66.04
2017-11-07T01:17:30.174Z,66.10
2017-11-07T01:18:30.141Z,65.85
2017-11-07T01:19:30.250Z,66.04
2017-11-07T01:20:30.199Z,65.75
2017-11-07T01:21:30.232Z,65.81
2017-11-07T01:22:30.495Z,66.04
2017-11-07T01:23:30.289Z,66.04
2017-11-07T01:24:30.326Z,65.85
2017-11-07T01:25:30.336Z,66.04
2017-11-07T01:26:30.390Z,65.72
2017-11-07T01:27:30.417Z,65.94
2017-11-07T01:28:30.735Z,66.24
2017-11-07T01:29:30.460Z,66.33
2017-11-07T01:30:30.593Z,66.52
2017-11-07T01:31:30.522Z,66.30
2017-11-07T01:32:30.578Z,66.39
2017-11-07T01:33:30.583Z,66.39
2017-11-07T01:34:30.863Z,66.39
2017-11-07T01:35:30.663Z,66.14
2017-11-07T01:36:30.677Z,66.20
2017-11-07T01:37:30.727Z,66.20
2017-11-07T01:38:30.739Z,66.20
2017-11-07T01:39:30.770Z,66.30
2017-11-07T01:40:31.051Z,66.20
2017-11-07T01:41:30.891Z,66.20
2017-11-07T01:42:30.888Z,66.10
2017-11-07T01:43:30.892Z,66.20
2017-11-07T01:44:30.925Z,66.20
2017-11-07T01:45:30.976Z,66.58
2017-11-07T01:46:31.263Z,66.68
2017-11-07T01:47:31.028Z,66.68
2017-11-07T01:48:31.115Z,66.68
2017-11-07T01:49:31.098Z,66.78
2017-11-07T01:50:31.128Z,66.78
2017-11-07T01:51:31.166Z,66.78
2017-11-07T01:52:31.423Z,66.78
2017-11-07T01:53:31.433Z,66.78
2017-11-07T01:54:31.236Z,66.68
2017-11-07T01:55:31.263Z,66.78
2017-11-07T01:56:31.318Z,66.68
2017-11-07T01:57:31.325Z,66.78
2017-11-07T01:58:31.624Z,66.49
2017-11-07T01:59:31.457Z,66.39
2017-11-07T02:00:31.437Z,66.97
2017-11-07T02:01:31.456Z,66.97
2017-11-07T02:02:31.496Z,66.68
2017-11-07T02:03:31.515Z,66.68
2017-11-07T02:04:31.828Z,66.68
2017-11-07T02:05:31.671Z,66.88
2017-11-07T02:06:31.604Z,66.88
2017-11-07T02:07:31.688Z,66.68
2017-11-07T02:08:31.690Z,66.68
2017-11-07T02:09:31.700Z,66.78
2017-11-07T02:10:31.991Z,66.68
2017-11-07T02:11:31.774Z,66.68
2017-11-07T02:12:31.789Z,66.68
2017-11-07T02:13:31.845Z,66.49
2017-11-07T02:14:31.869Z,66.68
2017-11-07T02:15:31.901Z,66.68
2017-11-07T02:16:31.912Z,66.68
2017-11-07T02:17:32.394Z,66.68
2017-11-07T02:18:31.996Z,66.58
2017-11-07T02:19:32.021Z,66.68
2017-11-07T02:20:32.046Z,66.68
2017-11-07T02:21:32.087Z,66.49
2017-11-07T02:22:32.098Z,66.49
2017-11-07T02:23:32.130Z,66.49
2017-11-07T02:24:32.427Z,66.78
2017-11-07T02:25:32.217Z,66.78
2017-11-07T02:26:32.246Z,66.68
2017-11-07T02:27:32.275Z,66.68
2017-11-07T02:28:32.287Z,66.58
2017-11-07T02:29:32.381Z,66.58
2017-11-07T02:30:32.344Z,66.58
2017-11-07T02:31:32.646Z,66.68
2017-11-07T02:32:32.426Z,66.58
2017-11-07T02:33:32.482Z,66.49
2017-11-07T02:34:32.472Z,66.49
2017-11-07T02:35:32.567Z,66.49
2017-11-07T02:36:32.534Z,66.58
2017-11-07T02:37:32.576Z,66.30
2017-11-07T02:38:32.840Z,66.39
2017-11-07T02:39:32.648Z,66.39
2017-11-07T02:40:32.705Z,66.39
2017-11-07T02:41:32.698Z,66.49
2017-11-07T02:42:32.736Z,66.68
2017-11-07T02:43:32.761Z,66.49
2017-11-07T02:44:32.788Z,66.78
2017-11-07T02:45:33.075Z,66.49
2017-11-07T02:46:32.841Z,66.58
2017-11-07T02:47:32.938Z,66.30
2017-11-07T02:48:32.965Z,67.07
2017-11-07T02:49:32.958Z,66.78
2017-11-07T02:50:32.967Z,66.68
2017-11-07T02:51:32.991Z,66.88
2017-11-07T02:52:33.347Z,66.97
2017-11-07T02:53:33.107Z,66.97
2017-11-07T02:54:33.080Z,66.97
2017-11-07T02:55:33.151Z,66.97
2017-11-07T02:56:33.148Z,66.88
2017-11-07T02:57:33.191Z,67.07
2017-11-07T02:58:33.206Z,66.97
2017-11-07T02:59:33.487Z,66.97
2017-11-07T03:00:33.272Z,66.97
2017-11-07T03:01:33.308Z,67.16
2017-11-07T03:02:33.347Z,66.88
2017-11-07T03:03:33.389Z,66.88
2017-11-07T03:04:33.406Z,67.16
2017-11-07T03:05:33.447Z,67.07
2017-11-07T03:06:33.719Z,66.97
2017-11-07T03:07:33.506Z,67.07
2017-11-07T03:08:33.577Z,67.13
2017-11-07T03:09:33.547Z,66.94
2017-11-07T03:10:33.573Z,67.35
2017-11-07T03:11:33.626Z,67.26
2017-11-07T03:12:33.635Z,67.16
2017-11-07T03:13:33.922Z,67.26
2017-11-07T03:14:33.701Z,67.13
2017-11-07T03:15:33.736Z,66.97
2017-11-07T03:16:33.776Z,67.13
2017-11-07T03:17:33.796Z,67.13
2017-11-07T03:18:33.826Z,67.03
2017-11-07T03:19:34.064Z,67.26
2017-11-07T03:20:34.152Z,67.07
2017-11-07T03:21:33.915Z,67.16
2017-11-07T03:22:33.941Z,67.45
2017-11-07T03:23:33.992Z,67.07
2017-11-07T03:24:34.004Z,67.22
2017-11-07T03:25:34.035Z,66.94
2017-11-07T03:26:34.081Z,67.07
2017-11-07T03:27:34.363Z,67.07
2017-11-07T03:28:34.123Z,67.45
2017-11-07T03:29:34.173Z,66.97
2017-11-07T03:30:34.205Z,66.97
2017-11-07T03:31:34.216Z,67.16
2017-11-07T03:32:34.253Z,66.97
2017-11-07T03:33:34.582Z,66.97
2017-11-07T03:34:34.339Z,67.16
2017-11-07T03:35:34.350Z,66.97
2017-11-07T03:36:34.371Z,66.97
2017-11-07T03:37:34.418Z,66.97
2017-11-07T03:38:34.452Z,66.84
2017-11-07T03:39:34.717Z,67.07
2017-11-07T03:40:34.509Z,66.97
2017-11-07T03:41:34.545Z,66.88
2017-11-07T03:42:34.553Z,66.88
2017-11-07T03:43:34.603Z,66.97
2017-11-07T03:44:34.620Z,66.97
2017-11-07T03:45:34.920Z,66.97
2017-11-07T03:46:34.783Z,66.97
2017-11-07T03:47:34.723Z,66.88
2017-11-07T03:48:34.744Z,66.97
2017-11-07T03:49:34.799Z,67.16
2017-11-07T03:50:34.798Z,66.88
2017-11-07T03:51:35.159Z,67.07
2017-11-07T03:52:34.879Z,67.07
2017-11-07T03:53:34.918Z,66.88
2017-11-07T03:54:34.929Z,66.97
2017-11-07T03:55:34.985Z,66.94
2017-11-07T03:56:34.987Z,66.94
2017-11-07T03:57:35.281Z,66.94
2017-11-07T03:58:35.194Z,66.94
2017-11-07T03:59:35.082Z,66.97
2017-11-07T04:00:35.111Z,66.94
2017-11-07T04:01:35.157Z,66.94
2017-11-07T04:02:35.184Z,66.78
2017-11-07T04:03:35.465Z,67.03
2017-11-07T04:04:35.449Z,67.07
2017-11-07T04:05:35.286Z,66.94
2017-11-07T04:06:35.319Z,66.88
2017-11-07T04:07:35.348Z,66.84
2017-11-07T04:08:35.372Z,66.97
2017-11-07T04:09:35.651Z,66.84
2017-11-07T04:10:35.437Z,66.97
2017-11-07T04:11:35.516Z,66.97
2017-11-07T04:12:35.496Z,66.94
2017-11-07T04:13:35.520Z,66.84
2017-11-07T04:14:35.533Z,67.22
2017-11-07T04:15:35.985Z,66.94
2017-11-07T04:16:35.596Z,66.94
2017-11-07T04:17:35.626Z,66.94
2017-11-07T04:18:35.673Z,66.94
2017-11-07T04:19:35.704Z,66.94
2017-11-07T04:20:35.800Z,66.94
2017-11-07T04:21:36.220Z,67.07
2017-11-07T04:22:35.799Z,67.07
2017-11-07T04:23:35.821Z,66.94
2017-11-07T04:24:35.871Z,66.94
2017-11-07T04:25:35.896Z,67.03
2017-11-07T04:26:35.901Z,67.13
2017-11-07T04:27:36.211Z,67.03
2017-11-07T04:28:35.982Z,66.88
2017-11-07T04:29:36.004Z,66.78
2017-11-07T04:30:36.042Z,67.03
2017-11-07T04:31:36.074Z,66.94
2017-11-07T04:32:39.789Z,67.07
2017-11-07T04:33:36.418Z,66.94
2017-11-07T04:34:36.146Z,67.42
2017-11-07T04:35:36.188Z,67.32
2017-11-07T04:36:36.224Z,67.26
2017-11-07T04:37:36.253Z,67.13
2017-11-07T04:38:36.320Z,67.26
2017-11-07T04:39:36.626Z,67.22
2017-11-07T04:40:36.347Z,67.26
2017-11-07T04:41:36.363Z,67.22
2017-11-07T04:42:36.428Z,67.26
2017-11-07T04:43:36.427Z,67.42
2017-11-07T04:44:36.511Z,67.22
2017-11-07T04:45:36.788Z,67.42
2017-11-07T04:46:36.512Z,67.13
2017-11-07T04:47:36.563Z,67.42
2017-11-07T04:48:36.592Z,67.35
2017-11-07T04:49:36.608Z,67.51
2017-11-07T04:50:36.651Z,67.03
2017-11-07T04:51:36.673Z,67.13
2017-11-07T04:52:36.969Z,67.45
2017-11-07T04:53:36.734Z,67.35
2017-11-07T04:54:36.775Z,67.22
2017-11-07T04:55:36.796Z,67.32
2017-11-07T04:56:36.822Z,67.26
2017-11-07T04:57:36.873Z,67.26
2017-11-07T04:58:36.898Z,67.03
2017-11-07T04:59:36.910Z,67.22
2017-11-07T05:00:36.943Z,67.22
2017-11-07T05:01:36.993Z,67.13
2017-11-07T05:02:37.006Z,67.13
2017-11-07T05:03:37.036Z,67.35
2017-11-07T05:04:37.088Z,67.22
2017-11-07T05:05:37.346Z,67.32
2017-11-07T05:06:37.143Z,67.35
2017-11-07T05:07:37.187Z,67.51
2017-11-07T05:08:37.208Z,67.26
2017-11-07T05:09:37.439Z,66.94
2017-11-07T05:10:37.268Z,67.22
2017-11-07T05:11:37.293Z,66.97
2017-11-07T05:12:37.592Z,67.22
2017-11-07T05:13:37.379Z,67.16
2017-11-07T05:14:37.371Z,67.07
2017-11-07T05:15:37.405Z,67.03
2017-11-07T05:16:37.452Z,66.94
2017-11-07T05:17:37.496Z,67.03
2017-11-07T05:18:37.593Z,66.88
2017-11-07T05:19:37.838Z,66.94
2017-11-07T05:20:37.605Z,66.97
2017-11-07T05:21:37.653Z,66.68
2017-11-07T05:22:37.633Z,66.65
2017-11-07T05:23:37.676Z,66.46
2017-11-07T05:24:37.677Z,66.84
2017-11-07T05:25:37.726Z,66.88
2017-11-07T05:26:38.008Z,66.88
2017-11-07T05:27:37.771Z,66.88
2017-11-07T05:28:37.822Z,66.68
2017-11-07T05:29:37.849Z,66.68
2017-11-07T05:30:37.963Z,66.46
2017-11-07T05:31:37.918Z,66.49
2017-11-07T05:32:37.924Z,66.58
2017-11-07T05:33:38.236Z,66.55
2017-11-07T05:34:38.056Z,66.36
2017-11-07T05:35:38.037Z,66.55
2017-11-07T05:36:38.050Z,66.46
2017-11-07T05:37:38.218Z,66.46
2017-11-07T05:38:38.113Z,66.65
2017-11-07T05:39:38.163Z,66.49
2017-11-07T05:40:38.478Z,66.46
2017-11-07T05:41:38.234Z,66.68
2017-11-07T05:42:38.257Z,66.68
2017-11-07T05:43:38.278Z,66.46
2017-11-07T05:44:38.293Z,66.68
2017-11-07T05:45:38.351Z,66.68
2017-11-07T05:46:38.379Z,66.46
2017-11-07T05:47:38.649Z,66.65
2017-11-07T05:48:38.463Z,66.65
2017-11-07T05:49:38.538Z,66.65
2017-11-07T05:50:38.493Z,66.49
2017-11-07T05:51:38.523Z,66.94
2017-11-07T05:52:38.553Z,66.74
2017-11-07T05:53:38.569Z,66.94
2017-11-07T05:54:38.931Z,66.84
2017-11-07T05:55:38.632Z,66.94
2017-11-07T05:56:38.697Z,66.46
2017-11-07T05:57:38.711Z,66.94
2017-11-07T05:58:38.741Z,66.58
2017-11-07T05:59:38.755Z,66.36
2017-11-07T06:00:38.807Z,66.68
2017-11-07T06:01:39.133Z,66.74
2017-11-07T06:02:38.863Z,66.65
2017-11-07T06:03:38.893Z,66.27
2017-11-07T06:04:38.920Z,66.36
2017-11-07T06:05:38.961Z,66.65
2017-11-07T06:06:38.984Z,66.55
2017-11-07T06:07:39.311Z,66.65
2017-11-07T06:08:39.088Z,66.65
2017-11-07T06:09:39.077Z,66.55
2017-11-07T06:10:39.104Z,66.46
2017-11-07T06:11:39.127Z,66.65
2017-11-07T06:12:39.151Z,66.46
2017-11-07T06:13:39.457Z,66.65
2017-11-07T06:14:39.213Z,66.55
2017-11-07T06:15:39.245Z,66.49
2017-11-07T06:16:39.290Z,66.46
2017-11-07T06:17:39.377Z,66.46
2017-11-07T06:18:39.355Z,66.55
2017-11-07T06:19:39.665Z,66.30
2017-11-07T06:20:39.404Z,66.55
2017-11-07T06:21:39.425Z,66.84
2017-11-07T06:22:39.474Z,66.30
2017-11-07T06:23:39.504Z,66.65
2017-11-07T06:24:39.535Z,66.68
2017-11-07T06:25:39.867Z,66.55
2017-11-07T06:26:39.590Z,66.36
2017-11-07T06:27:39.613Z,66.55
2017-11-07T06:28:39.644Z,66.68
2017-11-07T06:29:39.841Z,66.55
2017-11-07T06:30:39.709Z,66.68
2017-11-07T06:31:40.056Z,66.65
2017-11-07T06:32:39.773Z,66.58
2017-11-07T06:33:39.801Z,66.88
2017-11-07T06:34:39.843Z,66.78
2017-11-07T06:35:39.881Z,66.65
2017-11-07T06:36:39.892Z,66.94
2017-11-07T06:37:40.221Z,66.78
2017-11-07T06:38:39.949Z,66.78
2017-11-07T06:39:40.049Z,66.94
2017-11-07T06:40:40.032Z,66.58
2017-11-07T06:41:40.046Z,66.78
2017-11-07T06:42:40.088Z,66.97
2017-11-07T06:43:40.377Z,66.65
2017-11-07T06:44:40.141Z,66.94
2017-11-07T06:45:40.187Z,66.46
2017-11-07T06:46:40.196Z,66.68
2017-11-07T06:47:40.225Z,66.39
2017-11-07T06:48:40.271Z,66.97
2017-11-07T06:49:40.596Z,66.58
2017-11-07T06:50:40.315Z,66.68
2017-11-07T06:51:40.366Z,66.88
2017-11-07T06:52:40.446Z,66.58
2017-11-07T06:53:40.426Z,66.78
2017-11-07T06:54:40.457Z,66.58
2017-11-07T06:55:40.730Z,66.68
2017-11-07T06:56:40.523Z,66.68
2017-11-07T06:57:40.534Z,66.49
2017-11-07T06:58:40.592Z,66.58
2017-11-07T06:59:40.595Z,66.58
2017-11-07T07:00:40.776Z,66.39
2017-11-07T07:01:40.955Z,66.39
2017-11-07T07:02:40.806Z,66.49
2017-11-07T07:03:40.716Z,66.68
2017-11-07T07:04:40.773Z,66.78
2017-11-07T07:05:40.829Z,66.78
2017-11-07T07:06:40.825Z,66.20
2017-11-07T07:07:41.113Z,66.39
2017-11-07T07:08:40.892Z,66.20
2017-11-07T07:09:40.911Z,66.30
2017-11-07T07:10:41.026Z,66.20
2017-11-07T07:11:40.982Z,66.30
2017-11-07T07:12:40.993Z,66.10
2017-11-07T07:13:41.292Z,66.30
2017-11-07T07:14:41.059Z,66.30
2017-11-07T07:15:41.091Z,66.39
2017-11-07T07:16:41.116Z,66.39
2017-11-07T07:17:41.152Z,66.49
2017-11-07T07:18:41.179Z,65.72
2017-11-07T07:19:41.510Z,66.01
2017-11-07T07:20:41.239Z,65.63
2017-11-07T07:21:41.277Z,65.81
2017-11-07T07:22:41.320Z,65.81
2017-11-07T07:23:41.359Z,66.20
2017-11-07T07:24:41.590Z,66.01
2017-11-07T07:25:41.426Z,66.10
2017-11-07T07:26:41.742Z,65.91
2017-11-07T07:27:41.455Z,66.01
2017-11-07T07:28:41.494Z,66.10
2017-11-07T07:29:41.523Z,66.01
2017-11-07T07:30:42.790Z,66.20
2017-11-07T07:31:41.587Z,66.10
2017-11-07T07:32:41.636Z,66.20
2017-11-07T07:33:41.942Z,66.10
2017-11-07T07:34:41.687Z,65.81
2017-11-07T07:35:41.723Z,65.72
2017-11-07T07:36:41.891Z,65.43
2017-11-07T07:37:41.989Z,65.53
2017-11-07T07:38:41.821Z,65.24
2017-11-07T07:39:41.830Z,65.33
2017-11-07T07:40:42.213Z,65.43
2017-11-07T07:41:41.891Z,65.43
2017-11-07T07:42:41.954Z,65.43
2017-11-07T07:43:41.981Z,65.53
2017-11-07T07:44:41.999Z,65.33
2017-11-07T07:45:42.017Z,65.43
2017-11-07T07:46:42.063Z,65.33
2017-11-07T07:47:42.378Z,65.33
2017-11-07T07:48:42.119Z,65.63
2017-11-07T07:49:42.155Z,65.43
2017-11-07T07:50:42.163Z,65.33
2017-11-07T07:51:42.220Z,65.53
2017-11-07T07:52:42.226Z,65.81
2017-11-07T07:53:42.361Z,65.63
2017-11-07T07:54:42.550Z,65.33
2017-11-07T07:55:42.346Z,65.72
2017-11-07T07:56:42.355Z,65.53
2017-11-07T07:57:42.397Z,65.43
2017-11-07T07:58:42.428Z,65.53
2017-11-07T07:59:42.448Z,65.72
2017-11-07T08:00:42.477Z,65.63
2017-11-07T08:01:42.771Z,65.72
2017-11-07T08:02:42.552Z,65.81
2017-11-07T08:03:42.617Z,65.33
2017-11-07T08:04:42.600Z,65.63
2017-11-07T08:05:42.651Z,65.24
2017-11-07T08:06:42.663Z,65.53
2017-11-07T08:07:42.706Z,65.43
2017-11-07T08:08:42.991Z,65.53
2017-11-07T08:09:42.808Z,65.05
2017-11-07T08:10:42.786Z,65.43
2017-11-07T08:11:42.813Z,65.63
2017-11-07T08:12:42.864Z,65.63
2017-11-07T08:13:42.928Z,65.43
2017-11-07T08:14:42.929Z,65.43
2017-11-07T08:15:43.273Z,65.43
2017-11-07T08:16:42.971Z,65.43
2017-11-07T08:17:43.033Z,65.63
2017-11-07T08:18:43.031Z,65.63
2017-11-07T08:19:43.067Z,65.05
2017-11-07T08:20:43.157Z,65.14
2017-11-07T08:21:43.158Z,65.72
2017-11-07T08:22:43.473Z,65.24
2017-11-07T08:23:43.205Z,65.14
2017-11-07T08:24:43.245Z,65.33
2017-11-07T08:25:43.265Z,65.24
2017-11-07T08:26:43.299Z,65.24
2017-11-07T08:27:43.329Z,65.08
2017-11-07T08:28:43.416Z,65.17
2017-11-07T08:29:43.660Z,65.05
2017-11-07T08:30:43.455Z,65.14
2017-11-07T08:31:43.455Z,65.24
2017-11-07T08:32:43.463Z,65.05
2017-11-07T08:33:43.508Z,65.14
2017-11-07T08:34:43.526Z,65.14
2017-11-07T08:35:43.576Z,65.33
2017-11-07T08:36:43.867Z,65.05
2017-11-07T08:37:43.625Z,64.86
2017-11-07T08:38:43.667Z,64.95
2017-11-07T08:39:43.684Z,65.17
2017-11-07T08:40:43.717Z,65.17
2017-11-07T08:41:43.779Z,65.14
2017-11-07T08:42:44.041Z,64.89
2017-11-07T08:43:43.826Z,65.14
2017-11-07T08:44:43.846Z,64.66
2017-11-07T08:45:43.892Z,64.47
2017-11-07T08:46:43.973Z,64.66
2017-11-07T08:47:43.951Z,64.47
2017-11-07T08:48:44.242Z,64.66
2017-11-07T08:49:43.993Z,64.69
2017-11-07T08:50:44.041Z,64.76
2017-11-07T08:51:44.072Z,64.66
2017-11-07T08:52:44.092Z,64.59
2017-11-07T08:53:44.147Z,65.27
2017-11-07T08:54:44.427Z,64.50
2017-11-07T08:55:44.197Z,65.27
2017-11-07T08:56:44.243Z,64.69
2017-11-07T08:57:44.261Z,65.17
2017-11-07T08:58:44.302Z,65.24
2017-11-07T08:59:44.320Z,65.17
2017-11-07T09:00:44.736Z,65.27
2017-11-07T09:01:44.383Z,65.08
2017-11-07T09:02:44.397Z,64.98
2017-11-07T09:03:44.445Z,64.59
2017-11-07T09:04:44.459Z,64.98
2017-11-07T09:05:44.509Z,64.79
2017-11-07T09:06:44.785Z,64.59
2017-11-07T09:07:44.558Z,64.89
2017-11-07T09:08:44.601Z,64.89
2017-11-07T09:09:44.640Z,64.69
2017-11-07T09:10:44.664Z,64.69
2017-11-07T09:11:44.702Z,64.69
2017-11-07T09:12:44.982Z,65.08
2017-11-07T09:13:44.744Z,65.17
2017-11-07T09:14:44.993Z,64.59
2017-11-07T09:15:44.831Z,64.98
2017-11-07T09:16:44.853Z,64.31
2017-11-07T09:17:44.871Z,64.59
2017-11-07T09:18:45.232Z,64.59
2017-11-07T09:19:44.956Z,64.40
2017-11-07T09:20:45.029Z,64.31
2017-11-07T09:21:44.999Z,64.21
2017-11-07T09:22:45.040Z,64.21
2017-11-07T09:23:45.076Z,64.40
2017-11-07T09:24:45.353Z,64.02
2017-11-07T09:25:45.143Z,64.59
2017-11-07T09:26:45.151Z,64.40
2017-11-07T09:27:45.184Z,64.21
2017-11-07T09:28:45.381Z,64.59
2017-11-07T09:29:45.259Z,64.31
2017-11-07T09:30:45.599Z,64.40
2017-11-07T09:31:45.308Z,64.59
2017-11-07T09:32:45.343Z,64.31
2017-11-07T09:33:45.371Z,64.21
2017-11-07T09:34:45.407Z,64.50
2017-11-07T09:35:45.447Z,64.40
2017-11-07T09:36:45.468Z,64.59
2017-11-07T09:37:45.491Z,64.40
2017-11-07T09:38:45.526Z,64.21
2017-11-07T09:39:45.598Z,64.05
2017-11-07T09:40:45.609Z,64.21
2017-11-07T09:41:45.628Z,64.21
2017-11-07T09:42:45.929Z,64.59
2017-11-07T09:43:45.699Z,64.50
2017-11-07T09:44:45.729Z,64.15
2017-11-07T09:45:45.760Z,64.15
2017-11-07T09:46:45.812Z,64.25
2017-11-07T09:47:45.808Z,64.15
2017-11-07T09:48:46.131Z,64.15
2017-11-07T09:49:45.870Z,64.05
2017-11-07T09:50:45.980Z,64.15
2017-11-07T09:51:45.944Z,63.95
2017-11-07T09:52:45.992Z,64.05
2017-11-07T09:53:45.996Z,64.34
2017-11-07T09:54:46.028Z,64.34
2017-11-07T09:55:46.324Z,63.95
2017-11-07T09:56:46.159Z,63.67
2017-11-07T09:57:46.123Z,63.76
2017-11-07T09:58:46.154Z,63.76
2017-11-07T09:59:46.185Z,63.76
2017-11-07T10:00:46.237Z,63.95
2017-11-07T10:01:46.259Z,64.05
2017-11-07T10:02:46.713Z,63.85
2017-11-07T10:03:46.312Z,63.67
2017-11-07T10:04:46.341Z,63.47
2017-11-07T10:05:46.377Z,63.57
2017-11-07T10:06:46.405Z,63.76
2017-11-07T10:07:46.442Z,63.67
2017-11-07T10:08:46.495Z,63.85
2017-11-07T10:09:46.771Z,63.57
2017-11-07T10:10:46.597Z,63.57
2017-11-07T10:11:46.580Z,63.95
2017-11-07T10:12:46.594Z,63.76
2017-11-07T10:13:46.628Z,63.85
2017-11-07T10:14:46.678Z,63.57
2017-11-07T10:15:46.699Z,63.67
2017-11-07T10:16:47.024Z,63.67
2017-11-07T10:17:46.758Z,63.67
2017-11-07T10:18:46.783Z,63.67
2017-11-07T10:19:46.835Z,63.28
2017-11-07T10:20:46.968Z,63.28
2017-11-07T10:21:46.899Z,63.38
2017-11-07T10:22:46.930Z,63.38
2017-11-07T10:23:47.216Z,63.38
2017-11-07T10:24:46.980Z,63.28
2017-11-07T10:25:47.022Z,62.90
2017-11-07T10:26:47.041Z,62.90
2017-11-07T10:27:47.100Z,63.09
2017-11-07T10:28:47.106Z,62.90
2017-11-07T10:29:47.148Z,63.09
2017-11-07T10:30:47.430Z,63.09
2017-11-07T10:31:47.197Z,63.09
2017-11-07T10:32:47.344Z,63.09
2017-11-07T10:33:47.279Z,62.90
2017-11-07T10:34:47.306Z,63.28
2017-11-07T10:35:47.339Z,62.80
2017-11-07T10:36:47.352Z,62.99
2017-11-07T10:37:47.656Z,63.38
2017-11-07T10:38:47.415Z,63.18
2017-11-07T10:39:47.455Z,62.99
2017-11-07T10:40:47.503Z,63.38
2017-11-07T10:41:47.538Z,63.28
2017-11-07T10:42:47.571Z,63.38
2017-11-07T10:43:47.599Z,63.38
2017-11-07T10:44:47.886Z,63.28
2017-11-07T10:45:47.661Z,63.47
2017-11-07T10:46:47.671Z,63.67
2017-11-07T10:47:47.718Z,63.57
2017-11-07T10:48:47.733Z,63.57
2017-11-07T10:49:47.762Z,63.57
2017-11-07T10:50:47.847Z,63.28
2017-11-07T10:51:48.127Z,63.28
2017-11-07T10:52:47.876Z,62.99
2017-11-07T10:53:47.908Z,63.18
2017-11-07T10:54:47.946Z,62.99
2017-11-07T10:55:48.023Z,62.99
2017-11-07T10:56:48.004Z,63.18
2017-11-07T10:57:48.018Z,62.99
2017-11-07T10:58:48.366Z,63.18
2017-11-07T10:59:48.096Z,62.99
2017-11-07T11:00:48.129Z,62.80
2017-11-07T11:01:48.146Z,62.99
2017-11-07T11:02:48.191Z,63.28
2017-11-07T11:03:48.207Z,62.70
2017-11-07T11:04:48.246Z,62.70
2017-11-07T11:05:48.687Z,62.70
2017-11-07T11:06:48.309Z,62.80
2017-11-07T11:07:48.354Z,62.80
2017-11-07T11:08:48.376Z,62.80
2017-11-07T11:09:48.415Z,62.60
2017-11-07T11:10:48.461Z,62.80
2017-11-07T11:11:48.466Z,62.80
2017-11-07T11:12:48.812Z,62.80
2017-11-07T11:13:48.542Z,62.80
2017-11-07T11:14:48.573Z,62.80
2017-11-07T11:15:48.608Z,62.90
2017-11-07T11:16:48.645Z,62.80
2017-11-07T11:17:48.670Z,62.90
2017-11-07T11:18:49.154Z,62.80
2017-11-07T11:19:48.716Z,62.99
2017-11-07T11:20:48.748Z,62.70
2017-11-07T11:21:48.786Z,62.80
2017-11-07T11:22:48.830Z,62.99
2017-11-07T11:23:48.860Z,62.80
2017-11-07T11:24:49.194Z,62.90
2017-11-07T11:25:48.927Z,62.80
2017-11-07T11:26:48.940Z,62.99
2017-11-07T11:27:48.986Z,62.90
2017-11-07T11:28:49.299Z,62.90
2017-11-07T11:29:49.034Z,62.80
2017-11-07T11:30:49.336Z,62.90
2017-11-07T11:31:49.116Z,62.70
2017-11-07T11:32:49.143Z,62.93
2017-11-07T11:33:49.181Z,62.80
2017-11-07T11:34:49.290Z,62.51
2017-11-07T11:35:49.223Z,62.54
2017-11-07T11:36:49.574Z,62.60
2017-11-07T11:37:49.287Z,62.63
2017-11-07T11:38:49.342Z,62.60
2017-11-07T11:39:49.370Z,62.70
2017-11-07T11:40:49.421Z,62.51
2017-11-07T11:41:49.434Z,62.12
2017-11-07T11:42:49.757Z,62.41
2017-11-07T11:43:49.482Z,62.41
2017-11-07T11:44:49.534Z,62.41
2017-11-07T11:45:49.558Z,62.32
2017-11-07T11:46:49.602Z,62.41
2017-11-07T11:47:49.625Z,62.12
2017-11-07T11:48:49.955Z,62.35
2017-11-07T11:49:49.673Z,62.25
2017-11-07T11:50:49.738Z,62.25
2017-11-07T11:51:49.732Z,62.25
2017-11-07T11:52:49.767Z,62.32
2017-11-07T11:53:49.927Z,62.35
2017-11-07T11:54:50.150Z,62.41
2017-11-07T11:55:49.877Z,62.32
2017-11-07T11:56:49.911Z,62.51
2017-11-07T11:57:49.952Z,62.15
2017-11-07T11:58:49.953Z,62.54
2017-11-07T11:59:49.997Z,62.63
2017-11-07T12:00:50.268Z,62.63
2017-11-07T12:01:50.068Z,62.51
2017-11-07T12:02:50.098Z,62.54
2017-11-07T12:03:50.115Z,62.63
2017-11-07T12:04:50.146Z,62.35
2017-11-07T12:05:50.196Z,62.63
2017-11-07T12:06:50.459Z,62.25
2017-11-07T12:07:50.257Z,62.25
2017-11-07T12:08:50.375Z,62.25
2017-11-07T12:09:50.309Z,62.60
2017-11-07T12:10:50.338Z,62.63
2017-11-07T12:11:50.450Z,62.63
2017-11-07T12:12:50.702Z,62.63
2017-11-07T12:13:50.434Z,62.73
2017-11-07T12:14:50.464Z,62.54
2017-11-07T12:15:50.497Z,62.63
2017-11-07T12:16:50.588Z,62.63
2017-11-07T12:17:50.587Z,62.54
2017-11-07T12:18:50.869Z,62.35
2017-11-07T12:19:50.661Z,62.45
2017-11-07T12:20:50.661Z,62.25
2017-11-07T12:21:50.720Z,62.35
2017-11-07T12:22:50.724Z,62.35
2017-11-07T12:23:50.807Z,62.22
2017-11-07T12:24:51.068Z,62.25
2017-11-07T12:25:50.816Z,62.15
2017-11-07T12:26:50.879Z,62.35
2017-11-07T12:27:50.918Z,62.35
2017-11-07T12:28:50.999Z,62.35
2017-11-07T12:29:50.947Z,62.35
2017-11-07T12:30:50.981Z,62.63
2017-11-07T12:31:51.264Z,62.63
2017-11-07T12:32:51.040Z,62.63
2017-11-07T12:33:51.103Z,62.63
2017-11-07T12:34:51.103Z,62.35
2017-11-07T12:35:51.137Z,62.35
2017-11-07T12:36:51.171Z,62.45
2017-11-07T12:37:51.311Z,62.45
2017-11-07T12:38:51.510Z,62.45
2017-11-07T12:39:51.292Z,62.73
2017-11-07T12:40:51.298Z,62.45
2017-11-07T12:41:51.358Z,62.25
2017-11-07T12:42:51.386Z,62.06
2017-11-07T12:43:51.401Z,62.54
2017-11-07T12:44:51.452Z,62.45
2017-11-07T12:45:51.763Z,61.96
2017-11-07T12:46:51.506Z,62.06
2017-11-07T12:47:51.538Z,62.06
2017-11-07T12:48:51.569Z,61.96
2017-11-07T12:49:51.586Z,61.96
2017-11-07T12:50:51.617Z,61.96
2017-11-07T12:51:51.684Z,61.96
2017-11-07T12:52:51.937Z,62.25